Time;durP1;ratioP1;P1;durP2;ratioP2;P2;SDS_P1;SDS_P2;PMS_P1;PMS_P2;Temp;Humidity;BMP_temperature;BMP_pressure;BME280_temperature;BME280_humidity;BME280_pressure;Samples;Min_cycle;Max_cycle;Signal;HPM_P1;HPM_P2
2023/04/02 00:01:47;;;;;;;;;;;;;;;18.09;68.98;99600.88;7400324;19;1968;-41
2023/04/02 00:04:20;;;;;;;;;;;;;;;18.20;69.32;99608.63;7400339;19;1775;-41
2023/04/02 00:06:53;;;;;;;;;;;;;;;18.16;69.32;99607.25;7401177;19;1878;-41
2023/04/02 00:09:34;;;;;;;;;;;;;;;18.12;69.08;99600.53;7400631;19;1849;-41
2023/04/02 00:12:15;;;;;;;;;;;;;;;18.12;69.19;99613.09;7399062;19;1823;-41
2023/04/02 00:14:47;;;;;;;;;;;;;;;18.08;69.43;99610.75;7400141;19;1699;-41
2023/04/02 00:17:15;;;;;;;;;;;;;;;18.08;69.00;99601.84;7400278;19;2021;-41
2023/04/02 00:19:45;;;;;;;;;;;;;;;18.05;69.40;99626.25;7399857;19;1640;-41
2023/04/02 00:22:17;;;;;;;;;;;;;;;18.09;68.91;99612.41;7399451;19;1820;-41
2023/04/02 00:24:51;;;;;;;;;;;;;;;18.04;68.66;99603.16;7405129;19;1713;-41
2023/04/02 00:27:19;;;;;;;;;;;;;;;17.98;68.90;99593.94;7407861;19;1496;-41
2023/04/02 00:29:48;;;;;;;;;;;;;;;17.98;69.33;99599.28;7406469;19;1865;-41
2023/04/02 00:32:23;;;;;;;;;;;;;;;18.01;69.19;99614.19;7406885;19;2168;-41
2023/04/02 00:34:51;;;;;;;;;;;;;;;17.98;68.96;99603.81;7406512;19;1804;-41
2023/04/02 00:37:23;;;;;;;;;;;;;;;17.97;69.37;99608.31;7407046;19;1606;-41
2023/04/02 00:39:56;;;;;;;;;;;;;;;18.02;68.90;99616.69;7407494;19;1728;-41
2023/04/02 00:42:25;;;;;;;;;;;;;;;18.03;69.66;99612.22;7406572;19;1829;-41
2023/04/02 00:44:57;;;;;;;;;;;;;;;18.05;68.83;99605.69;7407191;19;2041;-41
2023/04/02 00:47:27;;;;;;;;;;;;;;;18.01;68.53;99593.63;7406284;19;1954;-41
2023/04/02 00:49:58;;;;;;;;;;;;;;;17.98;69.54;99614.50;7405987;19;1845;-41
2023/04/02 00:52:28;;;;;;;;;;;;;;;17.97;69.14;99612.84;7406331;19;2098;-41
2023/04/02 00:55:04;;;;;;;;;;;;;;;17.98;69.43;99609.16;7406254;19;1914;-41
2023/04/02 00:57:35;;;;;;;;;;;;;;;18.04;69.18;99608.53;7406639;19;2149;-41
2023/04/02 01:00:11;;;;;;;;;;;;;;;18.05;68.94;99611.03;7406889;19;1655;-41
2023/04/02 01:02:40;;;;;;;;;;;;;;;17.95;69.04;99604.13;7403967;19;1734;-41
2023/04/02 01:05:23;;;;;;;;;;;;;;;17.94;68.69;99602.44;7405750;19;1813;-41
2023/04/02 01:08:02;;;;;;;;;;;;;;;17.90;69.21;99617.97;7406396;19;1770;-41
2023/04/02 01:10:45;;;;;;;;;;;;;;;17.87;69.05;99602.25;7405767;19;1963;-41
2023/04/02 01:13:21;;;;;;;;;;;;;;;17.86;69.39;99617.41;7406017;19;1818;-41
2023/04/02 01:15:53;;;;;;;;;;;;;;;17.98;68.88;99611.81;7405622;19;1826;-41
2023/04/02 01:18:39;;;;;;;;;;;;;;;17.89;68.62;99617.13;7405183;19;1839;-41
2023/04/02 01:21:16;;;;;;;;;;;;;;;17.90;68.99;99612.59;7404001;19;1787;-41
2023/04/02 01:23:55;;;;;;;;;;;;;;;17.85;68.64;99614.94;7405748;19;1941;-41
2023/04/02 01:26:35;;;;;;;;;;;;;;;17.86;68.66;99622.78;7404967;19;1742;-41
2023/04/02 01:29:08;;;;;;;;;;;;;;;17.78;68.97;99619.19;7405176;19;1639;-41
2023/04/02 01:31:37;;;;;;;;;;;;;;;17.82;68.89;99610.69;7401784;19;1867;-44
2023/04/02 01:34:07;;;;;;;;;;;;;;;17.90;69.10;99623.31;7405219;19;1541;-41
2023/04/02 01:36:41;;;;;;;;;;;;;;;17.88;69.32;99622.63;7403653;19;2171;-41
2023/04/02 01:39:14;;;;;;;;;;;;;;;17.92;68.84;99615.13;7405376;19;1836;-41
2023/04/02 01:41:46;;;;;;;;;;;;;;;17.87;69.23;99607.59;7405460;19;1812;-41
2023/04/02 01:44:20;;;;;;;;;;;;;;;17.84;69.04;99611.38;7404821;19;2004;-41
2023/04/02 01:46:51;;;;;;;;;;;;;;;18.53;67.96;99610.66;7402216;19;1981;-41
2023/04/02 01:49:21;;;;;;;;;;;;;;;19.23;65.69;99615.72;7404955;19;1780;-41
2023/04/02 01:51:52;;;;;;;;;;;;;;;19.93;63.46;99604.53;7402215;19;1932;-41
2023/04/02 01:54:21;;;;;;;;;;;;;;;20.20;62.85;99603.31;7404203;19;2151;-41
2023/04/02 01:56:51;;;;;;;;;;;;;;;20.40;62.79;99619.88;7404514;19;1608;-41
2023/04/02 01:59:23;;;;;;;;;;;;;;;20.43;62.46;99611.47;7404695;19;2327;-41
2023/04/02 02:01:55;;;;;;;;;;;;;;;20.37;62.82;99612.19;7403916;19;1879;-41
2023/04/02 02:04:24;;;;;;;;;;;;;;;20.21;63.34;99636.34;7403900;19;1682;-41
2023/04/02 02:06:52;;;;;;;;;;;;;;;20.15;63.49;99621.78;7404278;19;1855;-41
2023/04/02 02:09:24;;;;;;;;;;;;;;;20.05;63.60;99626.50;7404916;19;1685;-41
2023/04/02 02:11:53;;;;;;;;;;;;;;;20.09;63.68;99630.50;7400916;19;1860;-41
2023/04/02 02:14:24;;;;;;;;;;;;;;;20.23;63.25;99626.28;7403569;19;1617;-41
2023/04/02 02:16:56;;;;;;;;;;;;;;;20.37;63.01;99630.97;7403643;19;1799;-41
2023/04/02 02:19:28;;;;;;;;;;;;;;;20.44;63.03;99636.47;7403346;19;1958;-42
2023/04/02 02:21:58;;;;;;;;;;;;;;;20.54;62.83;99634.44;7403640;19;1861;-41
2023/04/02 02:24:28;;;;;;;;;;;;;;;20.53;62.57;99623.84;7403598;19;1830;-42
2023/04/02 02:27:02;;;;;;;;;;;;;;;20.61;62.56;99635.47;7403696;19;1569;-41
2023/04/02 02:29:35;;;;;;;;;;;;;;;20.68;62.21;99624.00;7403160;19;1761;-41
2023/04/02 02:32:04;;;;;;;;;;;;;;;20.69;62.25;99631.03;7401675;19;1846;-41
2023/04/02 02:34:35;;;;;;;;;;;;;;;20.63;62.40;99648.69;7403116;19;1828;-41
2023/04/02 02:37:07;;;;;;;;;;;;;;;20.52;62.47;99644.50;7402983;19;1837;-41
2023/04/02 02:39:39;;;;;;;;;;;;;;;20.45;62.77;99647.06;7403930;19;1745;-41
2023/04/02 02:42:11;;;;;;;;;;;;;;;20.40;63.10;99641.34;7402861;19;1971;-41
2023/04/02 02:44:45;;;;;;;;;;;;;;;20.36;63.24;99644.56;7402819;19;1626;-41
2023/04/02 02:47:16;;;;;;;;;;;;;;;20.40;62.93;99643.22;7401843;19;2537;-41
2023/04/02 02:49:46;;;;;;;;;;;;;;;20.47;62.69;99641.50;7402278;19;1979;-41
2023/04/02 02:52:16;;;;;;;;;;;;;;;20.69;62.37;99655.22;7400292;19;1865;-41
2023/04/02 02:54:46;;;;;;;;;;;;;;;20.75;62.36;99647.31;7402439;19;1822;-41
2023/04/02 02:57:16;;;;;;;;;;;;;;;20.80;62.10;99641.41;7401985;19;1761;-41
2023/04/02 02:59:47;;;;;;;;;;;;;;;20.82;62.14;99650.97;7403102;19;1772;-41
2023/04/02 03:02:16;;;;;;;;;;;;;;;20.77;61.94;99648.00;7401956;19;1803;-41
2023/04/02 03:04:48;;;;;;;;;;;;;;;20.65;62.42;99660.97;7401833;19;1847;-41
2023/04/02 03:07:18;;;;;;;;;;;;;;;20.60;62.28;99649.06;7402385;19;1784;-41
2023/04/02 03:09:51;;;;;;;;;;;;;;;20.60;62.31;99665.16;7402455;19;1957;-41
2023/04/02 03:12:32;;;;;;;;;;;;;;;20.57;62.77;99652.91;7399458;19;1854;-41
2023/04/02 03:15:07;;;;;;;;;;;;;;;20.53;62.66;99654.25;7402089;19;1812;-41
2023/04/02 03:17:38;;;;;;;;;;;;;;;20.53;62.55;99654.25;7401075;19;1779;-41
2023/04/02 03:20:13;;;;;;;;;;;;;;;20.51;62.48;99655.41;7398619;19;1700;-41
2023/04/02 03:22:45;;;;;;;;;;;;;;;20.56;62.38;99672.69;7398858;19;2054;-41
2023/04/02 03:25:19;;;;;;;;;;;;;;;20.79;62.22;99663.91;7399442;19;1641;-41
2023/04/02 03:27:49;;;;;;;;;;;;;;;21.01;61.23;99676.59;7393144;19;1629;-41
2023/04/02 03:30:28;;;;;;;;;;;;;;;21.09;61.22;99662.28;7398856;19;2030;-41
2023/04/02 03:32:59;;;;;;;;;;;;;;;21.05;61.17;99677.91;7400101;19;1767;-41
2023/04/02 03:35:31;;;;;;;;;;;;;;;20.93;61.28;99679.31;7400037;19;1728;-41
2023/04/02 03:38:02;;;;;;;;;;;;;;;20.78;61.61;99670.31;7400809;19;1660;-41
2023/04/02 03:40:33;;;;;;;;;;;;;;;20.77;61.74;99674.00;7402868;19;1401;-41
2023/04/02 03:43:05;;;;;;;;;;;;;;;20.74;61.76;99682.41;7398104;19;2046;-41
2023/04/02 03:45:40;;;;;;;;;;;;;;;20.75;61.87;99687.63;7401194;19;2131;-41
2023/04/02 03:48:12;;;;;;;;;;;;;;;20.71;62.22;99677.38;7400353;19;1771;-41
2023/04/02 03:50:44;;;;;;;;;;;;;;;20.80;61.84;99679.03;7397696;19;1964;-41
2023/04/02 03:53:13;;;;;;;;;;;;;;;20.77;61.92;99682.06;7399808;19;1818;-41
2023/04/02 03:55:42;;;;;;;;;;;;;;;20.74;61.92;99688.63;7399693;19;1785;-41
2023/04/02 03:58:15;;;;;;;;;;;;;;;20.77;61.94;99695.50;7396202;19;1785;-41
2023/04/02 04:00:50;;;;;;;;;;;;;;;20.67;62.00;99698.38;7401878;19;958;-41
2023/04/02 04:03:19;;;;;;;;;;;;;;;20.14;63.80;99697.13;7401766;19;1842;-41
2023/04/02 04:05:50;;;;;;;;;;;;;;;19.86;64.46;99708.19;7401205;19;2247;-41
2023/04/02 04:08:20;;;;;;;;;;;;;;;19.67;64.99;99690.53;7399858;19;1826;-41
2023/04/02 04:10:52;;;;;;;;;;;;;;;19.46;65.53;99691.84;7400747;19;1867;-41
2023/04/02 04:13:22;;;;;;;;;;;;;;;19.38;65.13;99694.50;7401275;19;2176;-41
2023/04/02 04:15:56;;;;;;;;;;;;;;;19.32;65.55;99700.53;7400196;19;2354;-41
2023/04/02 04:18:33;;;;;;;;;;;;;;;19.33;65.73;99702.19;7400216;19;1864;-41
2023/04/02 04:21:02;;;;;;;;;;;;;;;19.16;65.55;99706.69;7399085;19;1961;-41
2023/04/02 04:23:32;;;;;;;;;;;;;;;19.16;66.19;99713.84;7399364;19;2189;-41
2023/04/02 04:26:04;;;;;;;;;;;;;;;19.58;65.29;99705.78;7400024;19;2108;-41
2023/04/02 04:28:37;;;;;;;;;;;;;;;19.74;64.87;99721.09;7399922;19;1785;-41
2023/04/02 04:31:16;;;;;;;;;;;;;;;19.54;65.18;99725.88;7399561;19;2155;-41
2023/04/02 04:33:49;;;;;;;;;;;;;;;19.46;65.39;99734.75;7401604;19;1027;-41
2023/04/02 04:36:27;;;;;;;;;;;;;;;19.38;65.72;99720.50;7399763;19;2275;-41
2023/04/02 04:38:58;;;;;;;;;;;;;;;19.28;66.13;99736.72;7400054;19;2008;-41
2023/04/02 04:41:29;;;;;;;;;;;;;;;19.42;65.37;99760.22;7399894;19;1783;-41
2023/04/02 04:44:04;;;;;;;;;;;;;;;19.71;64.97;99740.19;7399163;19;2051;-41
2023/04/02 04:46:38;;;;;;;;;;;;;;;19.51;66.04;99752.19;7397431;19;3831;-44
2023/04/02 04:49:10;;;;;;;;;;;;;;;19.41;66.12;99761.19;7398125;19;1784;-44
2023/04/02 04:51:41;;;;;;;;;;;;;;;19.31;66.64;99765.84;7399294;19;1867;-44
2023/04/02 04:54:13;;;;;;;;;;;;;;;19.13;66.83;99759.75;7400393;19;1794;-44
2023/04/02 04:56:46;;;;;;;;;;;;;;;19.04;67.60;99762.41;7397897;19;1342;-44
2023/04/02 04:59:17;;;;;;;;;;;;;;;18.97;67.54;99763.19;7398181;19;2054;-44
2023/04/02 05:01:52;;;;;;;;;;;;;;;19.08;67.32;99766.44;7399412;19;1734;-44
2023/04/02 05:04:23;;;;;;;;;;;;;;;19.13;67.39;99770.47;7399417;19;2220;-44
2023/04/02 05:06:55;;;;;;;;;;;;;;;19.13;66.92;99760.59;7398668;19;1722;-44
2023/04/02 05:09:26;;;;;;;;;;;;;;;19.05;67.73;99766.75;7397881;19;1999;-44
2023/04/02 05:11:56;;;;;;;;;;;;;;;19.04;67.17;99765.09;7404194;19;1881;-42
2023/04/02 05:14:27;;;;;;;;;;;;;;;19.05;67.39;99779.31;7403515;19;1024;-42
2023/04/02 05:17:02;;;;;;;;;;;;;;;19.00;67.88;99786.97;7401689;19;1884;-42
2023/04/02 05:19:34;;;;;;;;;;;;;;;19.00;68.50;99785.16;7402634;19;1154;-42
2023/04/02 05:22:06;;;;;;;;;;;;;;;18.96;68.78;99790.97;7403322;19;960;-42
2023/04/02 05:24:39;;;;;;;;;;;;;;;18.84;68.95;99798.44;7405504;19;1952;-42
2023/04/02 05:27:14;;;;;;;;;;;;;;;18.75;69.05;99800.19;7402612;19;1032;-42
2023/04/02 05:29:45;;;;;;;;;;;;;;;18.81;69.35;99798.78;7402389;19;1023;-42
2023/04/02 05:32:18;;;;;;;;;;;;;;;18.68;66.94;99794.66;7402748;19;1926;-42
2023/04/02 05:34:50;;;;;;;;;;;;;;;18.57;69.45;99794.88;7406364;19;1987;-42
2023/04/02 05:37:20;;;;;;;;;;;;;;;18.69;68.46;99799.00;7406095;19;2018;-42
2023/04/02 05:39:51;;;;;;;;;;;;;;;18.76;67.78;99804.56;7402207;19;1114;-42
2023/04/02 05:42:22;;;;;;;;;;;;;;;18.74;67.65;99808.38;7397076;19;2098;-47
2023/04/02 05:44:57;;;;;;;;;;;;;;;18.80;67.82;99815.81;7404790;19;1840;-47
2023/04/02 05:47:30;;;;;;;;;;;;;;;18.74;67.76;99814.59;7403932;19;1977;-47
2023/04/02 05:50:03;;;;;;;;;;;;;;;18.66;67.95;99830.59;7403573;19;2063;-44
2023/04/02 05:52:34;;;;;;;;;;;;;;;18.71;68.06;99827.47;7401279;19;2047;-42
2023/04/02 05:55:23;;;;;;;;;;;;;;;18.74;67.81;99827.13;7402161;19;1791;-42
2023/04/02 05:57:53;;;;;;;;;;;;;;;18.78;67.43;99831.19;7404559;19;1977;-42
2023/04/02 06:00:26;;;;;;;;;;;;;;;18.91;66.66;99834.31;7405654;19;1767;-43
2023/04/02 06:03:00;;;;;;;;;;;;;;;18.75;66.50;99839.53;7400549;19;1886;-42
2023/04/02 06:05:30;;;;;;;;;;;;;;;18.52;67.51;99840.03;7401684;19;1522;-41
2023/04/02 06:08:00;;;;;;;;;;;;;;;18.54;67.56;99851.41;7404133;19;1817;-41
2023/04/02 06:10:30;;;;;;;;;;;;;;;18.75;66.70;99843.06;7404511;19;1575;-41
2023/04/02 06:13:02;;;;;;;;;;;;;;;18.63;66.68;99855.84;7401722;19;2024;-41
2023/04/02 06:15:31;;;;;;;;;;;;;;;18.60;66.82;99866.03;7403952;19;1857;-41
2023/04/02 06:18:07;;;;;;;;;;;;;;;18.58;66.87;99860.84;7403669;19;1816;-41
2023/04/02 06:20:36;;;;;;;;;;;;;;;18.69;66.80;99859.75;7400910;19;1905;-41
2023/04/02 06:23:09;;;;;;;;;;;;;;;18.55;67.43;99858.47;7403400;19;2040;-41
2023/04/02 06:25:41;;;;;;;;;;;;;;;18.60;66.74;99866.88;7403587;19;1791;-41
2023/04/02 06:28:13;;;;;;;;;;;;;;;18.57;67.60;99861.00;7402224;19;1745;-41
2023/04/02 06:30:43;;;;;;;;;;;;;;;18.62;67.67;99861.34;7403774;19;1424;-42
2023/04/02 06:33:14;;;;;;;;;;;;;;;18.66;67.65;99860.91;7401805;19;2158;-41
2023/04/02 06:35:45;;;;;;;;;;;;;;;18.66;67.54;99866.25;7402757;19;1939;-41
2023/04/02 06:38:18;;;;;;;;;;;;;;;18.78;66.97;99869.53;7401096;19;2166;-42
2023/04/02 06:40:50;;;;;;;;;;;;;;;18.77;67.45;99872.38;7402591;19;1604;-42
2023/04/02 06:43:25;;;;;;;;;;;;;;;18.73;67.20;99874.50;7402796;19;1660;-42
2023/04/02 06:45:57;;;;;;;;;;;;;;;18.65;67.48;99875.28;7403247;19;1866;-42
2023/04/02 06:48:29;;;;;;;;;;;;;;;18.76;66.83;99886.75;7402621;19;1592;-42
2023/04/02 06:50:59;;;;;;;;;;;;;;;18.73;67.06;99877.19;7402004;19;1534;-42
2023/04/02 06:53:29;;;;;;;;;;;;;;;18.59;67.13;99891.97;7400284;19;1874;-42
2023/04/02 06:56:02;;;;;;;;;;;;;;;18.48;67.43;99894.88;7402383;19;1991;-42
2023/04/02 06:58:30;;;;;;;;;;;;;;;18.54;68.01;99893.41;7402584;19;1760;-42
2023/04/02 07:00:59;;;;;;;;;;;;;;;18.65;67.16;99891.34;7402370;19;1570;-42
2023/04/02 07:03:31;;;;;;;;;;;;;;;18.74;66.92;99902.13;7403273;19;1846;-42
2023/04/02 07:06:01;;;;;;;;;;;;;;;18.75;66.93;99891.25;7401452;19;1886;-42
2023/04/02 07:08:29;;;;;;;;;;;;;;;18.70;67.22;99909.63;7401510;19;2134;-42
2023/04/02 07:10:57;;;;;;;;;;;;;;;18.60;67.29;99915.09;7401624;19;1503;-42
2023/04/02 07:13:26;;;;;;;;;;;;;;;18.67;67.07;99910.78;7399013;19;1909;-42
2023/04/02 07:15:56;;;;;;;;;;;;;;;18.58;67.58;99911.72;7400292;19;1846;-42
2023/04/02 07:18:25;;;;;;;;;;;;;;;18.49;67.47;99924.19;7400651;19;1605;-43
2023/04/02 07:20:56;;;;;;;;;;;;;;;18.63;67.49;99925.47;7396941;19;1796;-43
2023/04/02 07:23:25;;;;;;;;;;;;;;;18.61;67.60;99906.03;7399516;19;1738;-43
2023/04/02 07:25:54;;;;;;;;;;;;;;;18.73;67.55;99919.22;7400199;19;1844;-43
2023/04/02 07:28:23;;;;;;;;;;;;;;;18.77;66.80;99915.22;7399921;19;1833;-43
2023/04/02 07:30:52;;;;;;;;;;;;;;;18.86;66.96;99930.38;7401936;19;1909;-43
2023/04/02 07:33:22;;;;;;;;;;;;;;;18.72;67.59;99939.81;7398395;19;2682;-43
2023/04/02 07:35:51;;;;;;;;;;;;;;;18.68;67.93;99928.53;7401330;19;2109;-43
2023/04/02 07:38:23;;;;;;;;;;;;;;;18.61;67.45;99940.03;7401261;19;2181;-43
2023/04/02 07:40:51;;;;;;;;;;;;;;;18.56;68.26;99927.09;7399566;19;1819;-43
2023/04/02 07:43:19;;;;;;;;;;;;;;;18.52;68.35;99931.03;7400618;19;1984;-42
2023/04/02 07:45:47;;;;;;;;;;;;;;;18.56;67.72;99934.28;7400749;19;1751;-43
2023/04/02 07:48:16;;;;;;;;;;;;;;;18.57;68.43;99927.94;7400830;19;1702;-43
2023/04/02 07:50:44;;;;;;;;;;;;;;;18.54;68.14;99929.06;7400264;19;1538;-43
2023/04/02 07:53:26;;;;;;;;;;;;;;;18.56;67.97;99935.13;7398396;19;1982;-43
2023/04/02 07:55:57;;;;;;;;;;;;;;;18.55;68.45;99930.75;7401985;19;1954;-43
2023/04/02 07:58:25;;;;;;;;;;;;;;;18.61;67.88;99930.13;7401156;19;2492;-43
2023/04/02 08:00:54;;;;;;;;;;;;;;;18.67;67.42;99942.91;7400575;19;1965;-43
2023/04/02 08:03:22;;;;;;;;;;;;;;;18.61;68.02;99942.69;7400045;19;1930;-43
2023/04/02 08:05:51;;;;;;;;;;;;;;;18.63;68.17;99922.78;7401463;19;2014;-43
2023/04/02 08:08:20;;;;;;;;;;;;;;;18.56;68.73;99929.78;7400574;19;2135;-43
2023/04/02 08:10:48;;;;;;;;;;;;;;;18.64;68.54;99929.84;7399766;19;1607;-43
2023/04/02 08:13:19;;;;;;;;;;;;;;;18.48;68.36;99940.38;7400225;19;2099;-43
2023/04/02 08:15:48;;;;;;;;;;;;;;;18.57;68.31;99939.47;7400818;19;1751;-43
2023/04/02 08:18:16;;;;;;;;;;;;;;;18.56;68.19;99942.31;7401706;19;2208;-43
2023/04/02 08:20:44;;;;;;;;;;;;;;;18.53;68.61;99948.81;7397947;19;1905;-43
2023/04/02 08:23:17;;;;;;;;;;;;;;;18.52;69.12;99938.25;7399787;19;2009;-43
2023/04/02 08:25:45;;;;;;;;;;;;;;;18.66;68.69;99937.69;7400057;19;1509;-43
2023/04/02 08:28:13;;;;;;;;;;;;;;;18.64;68.20;99943.25;7399997;19;1926;-43
2023/04/02 08:30:47;;;;;;;;;;;;;;;18.66;68.20;99945.75;7397728;19;2114;-43
2023/04/02 08:33:16;;;;;;;;;;;;;;;18.66;68.78;99951.97;7395273;19;2147;-46
2023/04/02 08:35:45;;;;;;;;;;;;;;;18.62;68.66;99963.97;7401626;19;1595;-46
2023/04/02 08:38:15;;;;;;;;;;;;;;;18.57;68.88;99958.22;7399798;19;1547;-46
2023/04/02 08:40:45;;;;;;;;;;;;;;;18.60;68.93;99965.09;7399300;19;2114;-46
2023/04/02 08:43:20;;;;;;;;;;;;;;;18.58;68.72;99970.63;7400089;19;1928;-46
2023/04/02 08:45:57;;;;;;;;;;;;;;;18.60;69.21;99975.81;7405929;19;1872;-46
2023/04/02 08:48:25;;;;;;;;;;;;;;;18.54;69.19;99961.19;7408396;19;1792;-46
2023/04/02 08:50:54;;;;;;;;;;;;;;;18.59;69.41;99964.25;7406436;19;2082;-46
2023/04/02 08:53:24;;;;;;;;;;;;;;;18.62;69.20;99955.94;7404438;19;1857;-46
2023/04/02 08:55:58;;;;;;;;;;;;;;;18.71;69.25;99959.53;7406357;19;1795;-46
2023/04/02 08:58:32;;;;;;;;;;;;;;;18.74;69.13;99955.69;7407124;19;1915;-46
2023/04/02 09:01:04;;;;;;;;;;;;;;;18.69;68.98;99953.47;7406651;19;1718;-46
2023/04/02 09:03:34;;;;;;;;;;;;;;;18.72;69.06;99976.44;7407686;19;957;-44
2023/04/02 09:06:04;;;;;;;;;;;;;;;18.63;69.18;99973.66;7405230;19;1908;-44
2023/04/02 09:08:34;;;;;;;;;;;;;;;18.66;68.69;99965.34;7405175;19;1978;-44
2023/04/02 09:11:07;;;;;;;;;;;;;;;18.67;68.81;99955.47;7407649;19;1416;-44
2023/04/02 09:13:37;;;;;;;;;;;;;;;18.69;68.69;99964.19;7406296;19;1859;-44
2023/04/02 09:16:11;;;;;;;;;;;;;;;18.80;68.30;99964.00;7406786;19;1676;-44
2023/04/02 09:18:40;;;;;;;;;;;;;;;18.88;68.01;99960.56;7406989;19;2167;-44
2023/04/02 09:21:27;;;;;;;;;;;;;;;18.85;67.80;99958.19;7404643;19;1692;-44
2023/04/02 09:23:56;;;;;;;;;;;;;;;18.77;68.00;99964.25;7406236;19;2112;-43
2023/04/02 09:26:26;;;;;;;;;;;;;;;18.77;68.18;99969.63;7405280;19;1988;-44
2023/04/02 09:28:56;;;;;;;;;;;;;;;18.80;68.22;99980.06;7405182;19;2053;-44
2023/04/02 09:31:31;;;;;;;;;;;;;;;18.79;67.79;99964.97;7405678;19;1799;-43
2023/04/02 09:34:00;;;;;;;;;;;;;;;18.83;67.66;99954.81;7402986;19;1867;-44
2023/04/02 09:36:33;;;;;;;;;;;;;;;18.75;67.64;99968.94;7406465;19;1976;-44
2023/04/02 09:39:05;;;;;;;;;;;;;;;18.72;68.22;99969.25;7403431;19;2052;-44
2023/04/02 09:41:34;;;;;;;;;;;;;;;18.66;68.08;99961.81;7406603;19;1729;-44
2023/04/02 09:44:17;;;;;;;;;;;;;;;18.65;67.95;99982.41;7406387;19;2137;-44
2023/04/02 09:46:58;;;;;;;;;;;;;;;18.62;68.17;99980.03;7406990;19;2571;-44
2023/04/02 09:49:28;;;;;;;;;;;;;;;18.75;67.71;99990.38;7405628;19;1799;-44
2023/04/02 09:52:17;;;;;;;;;;;;;;;18.56;68.36;99972.63;6880922;19;10000458;-44
2023/04/02 09:54:46;;;;;;;;;;;;;;;18.56;68.35;99993.19;7397853;19;2216;-43
2023/04/02 09:57:23;;;;;;;;;;;;;;;18.58;68.54;99983.16;7398310;19;2171;-43
2023/04/02 10:00:10;;;;;;;;;;;;;;;18.67;67.93;99980.41;7400926;19;1837;-44
2023/04/02 10:02:42;;;;;;;;;;;;;;;18.67;68.04;99983.09;7398759;19;1849;-44
2023/04/02 10:05:19;;;;;;;;;;;;;;;18.66;67.84;99978.75;7400280;19;1871;-44
2023/04/02 10:07:49;;;;;;;;;;;;;;;18.64;68.04;99985.22;7399799;19;1801;-43
2023/04/02 10:10:21;;;;;;;;;;;;;;;18.63;67.70;99995.09;7403746;19;1591;-43
2023/04/02 10:12:55;;;;;;;;;;;;;;;18.45;68.76;99991.56;6373852;19;10000711;-44
2023/04/02 10:15:27;;;;;;;;;;;;;;;18.33;69.10;99993.59;7397555;19;2318;-43
2023/04/02 10:18:03;;;;;;;;;;;;;;;18.51;68.19;100000.84;7399166;19;2109;-44
2023/04/02 10:20:36;;;;;;;;;;;;;;;18.57;68.30;99979.63;7398709;19;1850;-43
2023/04/02 10:23:04;;;;;;;;;;;;;;;18.59;68.49;100003.59;7400076;19;1625;-43
2023/04/02 10:25:37;;;;;;;;;;;;;;;18.59;68.41;99993.72;7399038;19;1838;-43
2023/04/02 10:28:11;;;;;;;;;;;;;;;18.60;68.32;100003.44;7400053;19;2215;-43
2023/04/02 10:30:47;;;;;;;;;;;;;;;18.72;67.83;99997.84;7400532;19;1588;-43
2023/04/02 10:33:20;;;;;;;;;;;;;;;18.75;67.68;100001.06;7399528;19;2188;-43
2023/04/02 10:35:54;;;;;;;;;;;;;;;18.59;67.90;99992.88;7401519;19;2104;-43
2023/04/02 10:38:44;;;;;;;;;;;;;;;18.49;68.27;99982.25;7398651;19;1913;-43
2023/04/02 10:41:24;;;;;;;;;;;;;;;18.50;68.19;99981.22;7402108;19;2068;-43
2023/04/02 10:44:01;;;;;;;;;;;;;;;18.63;67.84;99983.56;7403165;19;2168;-43
2023/04/02 10:46:36;;;;;;;;;;;;;;;18.71;68.27;99993.50;7403229;19;2167;-43
2023/04/02 10:49:12;;;;;;;;;;;;;;;18.69;67.51;99982.94;7403972;19;1741;-43
2023/04/02 10:51:43;;;;;;;;;;;;;;;18.68;67.94;99975.88;7401892;19;1868;-43
2023/04/02 10:54:21;;;;;;;;;;;;;;;18.49;67.00;99985.75;7401572;19;2185;-43
2023/04/02 10:56:51;;;;;;;;;;;;;;;18.42;67.10;99983.81;7401647;19;2117;-43
2023/04/02 10:59:23;;;;;;;;;;;;;;;18.61;67.41;99978.34;6882048;19;10000526;-43
2023/04/02 11:01:53;;;;;;;;;;;;;;;18.56;67.86;99966.41;7397081;19;1674;-43
2023/04/02 11:04:25;;;;;;;;;;;;;;;18.56;67.77;99988.69;7399316;19;2175;-43
2023/04/02 11:06:56;;;;;;;;;;;;;;;18.46;68.21;99971.81;7398483;19;1944;-43
2023/04/02 11:09:26;;;;;;;;;;;;;;;18.48;68.50;99980.53;7397476;19;1567;-43
2023/04/02 11:11:57;;;;;;;;;;;;;;;18.48;68.74;99964.47;7397792;19;1802;-43
2023/04/02 11:14:26;;;;;;;;;;;;;;;18.46;68.61;99961.09;7397856;19;1878;-43
2023/04/02 11:16:57;;;;;;;;;;;;;;;18.58;67.90;99980.47;7398366;19;2421;-43
2023/04/02 11:19:29;;;;;;;;;;;;;;;18.51;67.97;99974.91;7398279;19;1660;-43
2023/04/02 11:21:58;;;;;;;;;;;;;;;18.61;67.57;99969.47;7398504;19;2161;-43
2023/04/02 11:24:32;;;;;;;;;;;;;;;18.55;67.91;99970.91;7398156;19;1816;-43
2023/04/02 11:27:06;;;;;;;;;;;;;;;18.55;67.67;99972.75;7398926;19;1660;-43
2023/04/02 11:29:35;;;;;;;;;;;;;;;18.41;67.75;99939.31;7398357;19;1847;-43
2023/04/02 11:32:25;;;;;;;;;;;;;;;18.56;67.62;99972.63;7399112;19;1728;-43
2023/04/02 11:35:15;;;;;;;;;;;;;;;18.63;67.50;99972.84;7394547;19;1904;-43
2023/04/02 11:37:47;;;;;;;;;;;;;;;18.63;67.39;99962.13;7395507;19;1696;-43
2023/04/02 11:40:30;;;;;;;;;;;;;;;18.58;68.04;99948.34;7398570;19;1743;-43
2023/04/02 11:43:18;;;;;;;;;;;;;;;18.63;67.60;99954.94;7396843;19;1804;-44
2023/04/02 11:45:54;;;;;;;;;;;;;;;18.67;67.00;99945.59;7396564;19;2411;-43
2023/04/02 11:48:29;;;;;;;;;;;;;;;18.62;67.18;99947.03;7397572;19;1869;-43
2023/04/02 11:50:57;;;;;;;;;;;;;;;18.69;67.08;99962.34;7397094;19;1767;-43
2023/04/02 11:53:33;;;;;;;;;;;;;;;18.64;67.80;99963.78;7394887;19;1947;-43
2023/04/02 11:56:10;;;;;;;;;;;;;;;18.56;67.73;99961.03;7396133;19;2002;-43
2023/04/02 11:58:54;;;;;;;;;;;;;;;18.52;67.86;99955.16;7394477;19;3418;-43
2023/04/02 12:01:38;;;;;;;;;;;;;;;18.59;67.86;99966.94;7396842;19;2063;-43
2023/04/02 12:04:24;;;;;;;;;;;;;;;18.62;67.48;99965.78;7397506;19;1868;-43
2023/04/02 12:06:58;;;;;;;;;;;;;;;18.56;67.75;99961.91;7395264;19;2126;-43
2023/04/02 12:09:30;;;;;;;;;;;;;;;18.54;67.45;99963.88;7396535;19;2078;-43
2023/04/02 12:12:01;;;;;;;;;;;;;;;18.50;67.69;99943.75;7396249;19;2011;-43
2023/04/02 12:14:42;;;;;;;;;;;;;;;18.32;68.16;99942.91;7395151;19;1865;-43
2023/04/02 12:17:25;;;;;;;;;;;;;;;18.18;69.11;99942.41;7397301;19;1673;-43
2023/04/02 12:19:55;;;;;;;;;;;;;;;18.20;69.04;99966.34;7394193;19;1951;-43
2023/04/02 12:22:25;;;;;;;;;;;;;;;18.20;68.99;99950.28;7393173;19;1685;-43
2023/04/02 12:24:58;;;;;;;;;;;;;;;18.19;69.41;99944.09;7394112;19;1847;-43
2023/04/02 12:27:28;;;;;;;;;;;;;;;18.35;68.35;99938.09;7394401;19;1497;-43
2023/04/02 12:29:56;;;;;;;;;;;;;;;18.40;68.31;99942.97;7397026;19;1714;-43
2023/04/02 12:32:28;;;;;;;;;;;;;;;18.24;68.59;99925.78;7395907;19;2647;-43
2023/04/02 12:34:57;;;;;;;;;;;;;;;18.36;68.17;99941.59;7394425;19;1872;-43
2023/04/02 12:37:26;;;;;;;;;;;;;;;18.35;68.66;99943.44;7396795;19;1895;-43
2023/04/02 12:39:59;;;;;;;;;;;;;;;18.26;68.52;99937.19;7397475;19;1907;-43
2023/04/02 12:42:28;;;;;;;;;;;;;;;18.88;67.19;99933.78;7398546;19;1814;-43
2023/04/02 12:44:57;;;;;;;;;;;;;;;19.75;65.27;99929.31;7400255;19;1950;-43
2023/04/02 12:47:25;;;;;;;;;;;;;;;20.10;64.29;99919.38;7400043;19;1628;-43
2023/04/02 12:49:55;;;;;;;;;;;;;;;19.96;64.37;99928.06;7399578;19;1772;-43
2023/04/02 12:52:27;;;;;;;;;;;;;;;20.08;63.92;99924.06;7399493;19;1814;-43
2023/04/02 12:54:59;;;;;;;;;;;;;;;20.21;64.05;99899.44;7397802;19;1849;-43
2023/04/02 12:57:35;;;;;;;;;;;;;;;20.34;63.43;99925.81;7399261;19;1630;-43
2023/04/02 13:00:05;;;;;;;;;;;;;;;20.38;63.51;99919.13;7398367;19;2115;-43
2023/04/02 13:02:34;;;;;;;;;;;;;;;20.34;63.41;99932.03;7394778;19;1911;-43
2023/04/02 13:05:03;;;;;;;;;;;;;;;20.36;63.39;99927.31;7399278;19;1922;-43
2023/04/02 13:07:34;;;;;;;;;;;;;;;20.37;63.32;99920.09;7399227;19;2130;-44
2023/04/02 13:10:07;;;;;;;;;;;;;;;20.41;63.64;99922.31;7399631;19;1072;-44
2023/04/02 13:12:36;;;;;;;;;;;;;;;20.39;63.53;99912.72;7400140;19;1790;-43
2023/04/02 13:15:06;;;;;;;;;;;;;;;20.47;63.29;99931.53;7396378;19;1851;-44
2023/04/02 13:17:39;;;;;;;;;;;;;;;20.38;63.62;99921.81;7399958;19;1363;-44
2023/04/02 13:20:22;;;;;;;;;;;;;;;20.42;63.61;99928.53;7397651;19;1474;-43
2023/04/02 13:22:51;;;;;;;;;;;;;;;20.57;63.24;99931.38;7399137;19;1800;-43
2023/04/02 13:25:26;;;;;;;;;;;;;;;20.53;63.25;99904.03;7397907;19;1748;-44